Terminal Aerodrome Forecast
Issued by NWS Lake Charles, LA

Home | Current Version | Previous Version | Text Only | Print | Product List | Glossary On
Versions: 1 2 3 4 5 6 7 8 9 10 11 12 13 14 15 16 17 18 19 20 21 22 23 24
448
FTUS44 KLCH 061132
TAFLCH
TAF
KLCH 061132Z 0612/0712 28007KT P6SM OVC015
      TEMPO 0612/0616 OVC007
     FM061600 29006KT P6SM SCT015
     FM070400 VRB03KT 3SM BR OVC007=

USA.gov is the U.S. government's official web portal to all federal, state and local government web resources and services.